Pagrindinis puslapis
METAR-TAF:

METAR-TAF

Oro uostai :

Kristianstadas, Švedija

platuma: 55-55N, ilguma: 014-05E, Aukštis: 23 m

Dabartinis oras

Ataskaita buvo paskelbta 21 minutes, ne 09:20 UTC
Vėjas 3 kt nuo kintamojo kryptimis
Temperatūra -1°C
Drėgmė 93%
Slėgis 1006 hPa
Matomumas 10 km arba daugiau
Apsiniaukę ne aukštis 600 ft

METAR: ESMK 070920Z VRB03KT 9999 OVC006 M01/M02 Q1006

Laikas: 10:41 (09:41 UTC)

Prognozė

Ataskaita buvo paskelbta 1 valandą ir 35 minutes, ne 08:06 UTC
Prognozė galioja nuo 07 metu 09 UTC su 07 metu 18 UTC
Vėjas 5 kt iš Šiaurės
Matomumas 10 km arba daugiau
Su prošvaistėmis ne aukštis 700 ft
Laikinai
nuo 07 metu 09 UTC su 07 metu 18 UTC
Su prošvaistėmis ne aukštis 1200 ft

TAF: ESMK 070806Z 0709/0718 35005KT 9999 BKN007 TEMPO 0709/0718 BKN012

Orai ataskaitas ir orų prognozės (METAR, TAF).

turimą stotys yra geltonos ir raudonos taškus žemėlapyje.

Perkelti pele per norėdami pamatyti stoties vardą.

Tada spustelėkite, norėdami matyti oro stebėjimo ir prognozės.

Norėdami pakeisti žemėlapį: spustelėkite ant žalios mygtukų su juodo kryžiaus žemyn,; žalią mygtuką su brūkšneliu, jei norite nutolinti; arba žalių rodyklių gretimoms žemėlapius.


METAR-TAF: